createdAt,value
2023-05-06T00:00:18.749Z,42.95
2023-05-06T00:02:46.385Z,47.85
2023-05-06T00:05:14.749Z,51.97
2023-05-06T00:07:41.936Z,31.90
2023-05-06T00:10:09.282Z,23.85
2023-05-06T00:12:36.652Z,8.05
2023-05-06T00:15:04.594Z,29.08
2023-05-06T00:17:31.658Z,18.50
2023-05-06T00:19:59.014Z,78.70
2023-05-06T00:22:26.065Z,28.88
2023-05-06T00:24:52.990Z,52.97
2023-05-06T00:27:20.035Z,70.68
2023-05-06T00:29:47.398Z,42.95
2023-05-06T00:32:14.536Z,34.15
2023-05-06T00:34:41.645Z,47.28
2023-05-06T00:37:08.634Z,54.45
2023-05-06T00:39:35.645Z,33.20
2023-05-06T00:42:03.061Z,54.80
2023-05-06T00:44:31.894Z,76.13
2023-05-06T00:47:00.962Z,88.30
2023-05-06T00:49:29.378Z,98.35
2023-05-06T00:51:57.600Z,23.38
2023-05-06T00:54:29.922Z,27.13
2023-05-06T00:56:57.154Z,9.70
2023-05-06T00:59:24.321Z,128.30
2023-05-06T01:01:52.343Z,80.50
2023-05-06T01:04:19.996Z,55.65
2023-05-06T01:07:02.793Z,66.65
2023-05-06T01:09:41.043Z,26.65
2023-05-06T01:12:30.743Z,71.70
2023-05-06T01:15:14.123Z,73.18
2023-05-06T01:17:45.636Z,83.10
2023-05-06T01:20:13.325Z,72.53
2023-05-06T01:22:40.292Z,44.33
2023-05-06T01:25:07.664Z,9.88
2023-05-06T01:27:35.044Z,34.28
2023-05-06T01:30:02.816Z,67.03
2023-05-06T01:32:50.403Z,89.63
2023-05-06T01:35:35.976Z,69.57
2023-05-06T01:38:20.594Z,115.03
2023-05-06T01:40:54.686Z,140.93
2023-05-06T01:43:23.575Z,65.63
2023-05-06T01:45:53.663Z,28.80
2023-05-06T01:48:28.584Z,72.70
2023-05-06T01:50:56.740Z,24.15
2023-05-06T01:53:23.785Z,76.03
2023-05-06T01:55:50.792Z,100.60
2023-05-06T01:58:17.896Z,86.28
2023-05-06T02:00:44.781Z,68.22
2023-05-06T02:03:12.439Z,81.78
2023-05-06T02:05:39.669Z,21.92
2023-05-06T02:08:06.614Z,75.07
2023-05-06T02:10:33.676Z,13.70
2023-05-06T02:13:01.373Z,18.55
2023-05-06T02:15:28.306Z,12.32
2023-05-06T02:17:55.489Z,14.57
2023-05-06T02:20:22.660Z,19.08
2023-05-06T02:22:49.545Z,20.45
2023-05-06T02:25:16.803Z,14.60
2023-05-06T02:27:45.517Z,15.73
2023-05-06T02:30:12.718Z,20.50
2023-05-06T02:32:39.929Z,17.25
2023-05-06T02:35:08.083Z,17.23
2023-05-06T02:37:35.348Z,27.65
2023-05-06T02:40:02.792Z,19.73
2023-05-06T02:42:29.711Z,16.50
2023-05-06T02:44:56.898Z,13.32
2023-05-06T02:47:23.843Z,15.38
2023-05-06T02:49:50.803Z,15.75
2023-05-06T02:52:17.973Z,13.23
2023-05-06T02:54:44.940Z,14.50
2023-05-06T02:57:11.884Z,16.83
2023-05-06T02:59:38.951Z,13.40
2023-05-06T03:02:06.001Z,11.65
2023-05-06T03:04:33.141Z,11.95
2023-05-06T03:07:00.288Z,15.00
2023-05-06T03:09:27.295Z,14.27
2023-05-06T03:11:54.276Z,14.52
2023-05-06T03:14:21.406Z,14.18
2023-05-06T03:16:48.547Z,15.23
2023-05-06T03:19:15.590Z,12.50
2023-05-06T03:21:42.645Z,12.55
2023-05-06T03:24:09.838Z,13.55
2023-05-06T03:26:37.204Z,13.00
2023-05-06T03:29:05.172Z,12.55
2023-05-06T03:31:32.486Z,18.50
2023-05-06T03:33:59.500Z,15.93
2023-05-06T03:36:28.220Z,15.80
2023-05-06T03:38:55.437Z,14.60
2023-05-06T03:41:22.695Z,14.68
2023-05-06T03:43:49.631Z,15.85
2023-05-06T03:46:16.637Z,18.02
2023-05-06T03:48:43.684Z,14.02
2023-05-06T03:51:10.761Z,15.52
2023-05-06T03:53:38.213Z,15.60
2023-05-06T03:56:05.498Z,21.45
2023-05-06T03:58:32.691Z,34.90
2023-05-06T04:01:01.177Z,19.60
2023-05-06T04:03:28.506Z,25.80
2023-05-06T04:05:55.560Z,56.50
2023-05-06T04:08:22.759Z,31.38
2023-05-06T04:10:49.765Z,34.72
2023-05-06T04:13:18.458Z,34.45
2023-05-06T04:15:45.764Z,43.28
2023-05-06T04:18:19.164Z,22.63
2023-05-06T04:20:48.292Z,47.20
2023-05-06T04:23:15.479Z,42.88
2023-05-06T04:25:48.662Z,81.55
2023-05-06T04:28:16.966Z,22.70
2023-05-06T04:30:44.861Z,19.27
2023-05-06T04:33:12.353Z,20.17
2023-05-06T04:35:40.215Z,15.27
2023-05-06T04:38:07.481Z,16.10
2023-05-06T04:40:36.751Z,26.77
2023-05-06T04:43:04.789Z,23.35
2023-05-06T04:45:32.646Z,23.00
2023-05-06T04:47:59.847Z,19.38
2023-05-06T04:50:26.756Z,46.22
2023-05-06T04:52:54.040Z,31.80
2023-05-06T04:55:21.298Z,26.08
2023-05-06T04:57:48.223Z,22.33
2023-05-06T05:00:16.476Z,22.88
2023-05-06T05:02:43.770Z,21.25
2023-05-06T05:05:11.673Z,18.20
2023-05-06T05:07:39.255Z,21.80
2023-05-06T05:10:07.058Z,23.33
2023-05-06T05:12:33.984Z,20.33
2023-05-06T05:15:01.081Z,16.48
2023-05-06T05:17:28.454Z,21.70
2023-05-06T05:19:55.361Z,24.67
2023-05-06T05:22:22.372Z,49.78
2023-05-06T05:24:49.378Z,34.10
2023-05-06T05:27:16.435Z,49.10
2023-05-06T05:29:43.453Z,67.85
2023-05-06T05:32:10.681Z,36.75
2023-05-06T05:34:38.377Z,79.57
2023-05-06T05:37:05.405Z,137.65
2023-05-06T05:39:32.810Z,51.60
2023-05-06T05:41:59.781Z,41.67
2023-05-06T05:44:26.719Z,68.88
2023-05-06T05:46:53.816Z,165.82
2023-05-06T05:49:21.092Z,80.25
2023-05-06T05:51:47.990Z,52.67
2023-05-06T05:54:14.942Z,134.00
2023-05-06T05:56:42.300Z,88.18
2023-05-06T05:59:09.398Z,31.17
2023-05-06T06:01:36.599Z,92.65
2023-05-06T06:04:04.054Z,133.23
2023-05-06T06:06:31.608Z,244.52
2023-05-06T06:08:59.114Z,140.88
2023-05-06T06:11:27.090Z,59.50
2023-05-06T06:13:54.432Z,118.03
2023-05-06T06:16:21.628Z,115.13
2023-05-06T06:18:48.699Z,76.30
2023-05-06T06:21:15.614Z,62.85
2023-05-06T06:23:42.792Z,93.03
2023-05-06T06:26:12.090Z,162.52
2023-05-06T06:28:39.974Z,63.22
2023-05-06T06:31:06.989Z,89.25
2023-05-06T06:33:34.210Z,68.85
2023-05-06T06:36:01.210Z,88.75
2023-05-06T06:38:28.628Z,86.68
2023-05-06T06:40:55.619Z,53.25
2023-05-06T06:43:23.905Z,50.17
2023-05-06T06:45:51.626Z,93.88
2023-05-06T06:48:19.655Z,104.50
2023-05-06T06:50:46.812Z,194.07
2023-05-06T06:53:13.825Z,65.72
2023-05-06T06:55:44.422Z,44.20
2023-05-06T06:58:11.714Z,103.03
2023-05-06T07:00:38.902Z,41.78
2023-05-06T07:03:05.910Z,46.38
2023-05-06T07:05:32.978Z,45.67
2023-05-06T07:07:59.933Z,43.92
2023-05-06T07:10:27.266Z,43.50
2023-05-06T07:12:54.470Z,52.90
2023-05-06T07:15:21.895Z,62.53
2023-05-06T07:17:48.870Z,94.13
2023-05-06T07:20:16.419Z,61.92
2023-05-06T07:22:44.581Z,70.38
2023-05-06T07:25:11.937Z,86.18
2023-05-06T07:27:39.033Z,69.15
2023-05-06T07:30:06.970Z,85.93
2023-05-06T07:32:34.153Z,111.22
2023-05-06T07:35:01.674Z,132.80
2023-05-06T07:37:28.749Z,170.63
2023-05-06T07:39:58.010Z,50.00
2023-05-06T07:42:24.987Z,83.47
2023-05-06T07:44:52.028Z,84.10
2023-05-06T07:47:31.537Z,51.05
2023-05-06T07:49:59.540Z,74.70
2023-05-06T07:52:27.177Z,40.30
2023-05-06T07:54:54.338Z,41.17
2023-05-06T07:57:21.317Z,24.10
2023-05-06T07:59:49.963Z,21.67
2023-05-06T08:02:17.499Z,18.27
2023-05-06T08:04:45.208Z,57.05
2023-05-06T08:07:12.476Z,80.05
2023-05-06T08:09:39.381Z,47.35
2023-05-06T08:12:06.530Z,103.10
2023-05-06T08:14:33.777Z,105.18
2023-05-06T08:17:00.838Z,109.45
2023-05-06T08:19:28.061Z,47.42
2023-05-06T08:21:55.287Z,66.03
2023-05-06T08:24:22.234Z,71.07
2023-05-06T08:26:49.391Z,34.60
2023-05-06T08:29:16.560Z,34.20
2023-05-06T08:31:43.816Z,19.30
2023-05-06T08:34:10.873Z,28.67
2023-05-06T08:36:37.978Z,21.98
2023-05-06T08:39:06.079Z,31.27
2023-05-06T08:41:35.956Z,27.85
2023-05-06T08:44:05.705Z,29.13
2023-05-06T08:46:32.973Z,44.05
2023-05-06T08:49:00.834Z,49.85
2023-05-06T08:51:32.779Z,64.93
2023-05-06T08:54:04.995Z,73.45
2023-05-06T08:56:33.805Z,150.98
2023-05-06T08:59:01.641Z,60.35
2023-05-06T09:01:29.267Z,60.67
2023-05-06T09:03:58.327Z,40.95
2023-05-06T09:06:25.748Z,94.47
2023-05-06T09:08:53.171Z,35.60
2023-05-06T09:11:22.436Z,63.08
2023-05-06T09:13:51.225Z,50.53
2023-05-06T09:16:29.486Z,48.42
2023-05-06T09:18:57.697Z,51.83
2023-05-06T09:21:45.549Z,52.72
2023-05-06T09:24:14.278Z,63.15
2023-05-06T09:26:43.527Z,39.25
2023-05-06T09:29:11.058Z,92.65
2023-05-06T09:31:43.794Z,81.05
2023-05-06T09:34:11.972Z,58.40
2023-05-06T09:36:39.375Z,69.50
2023-05-06T09:39:07.179Z,75.43
2023-05-06T09:41:34.187Z,72.55
2023-05-06T09:44:01.718Z,78.18
2023-05-06T09:46:29.185Z,77.22
2023-05-06T09:48:58.527Z,78.25
2023-05-06T09:51:27.963Z,111.15
2023-05-06T09:53:57.333Z,61.20
2023-05-06T09:56:25.097Z,52.33
2023-05-06T09:58:54.961Z,62.58
2023-05-06T10:01:35.253Z,103.38
2023-05-06T10:04:06.713Z,167.80
2023-05-06T10:06:37.151Z,175.68
2023-05-06T10:09:06.319Z,101.40
2023-05-06T10:11:33.850Z,134.13
2023-05-06T10:14:01.729Z,138.40
2023-05-06T10:16:29.368Z,47.65
2023-05-06T10:18:58.665Z,40.47
2023-05-06T10:21:28.269Z,37.00
2023-05-06T10:24:07.731Z,62.22
2023-05-06T10:26:38.172Z,72.97
2023-05-06T10:29:10.703Z,39.20
2023-05-06T10:31:44.513Z,39.13
2023-05-06T10:34:11.635Z,58.10
2023-05-06T10:36:40.464Z,44.30
2023-05-06T10:39:10.489Z,28.90
2023-05-06T10:41:38.503Z,54.60
2023-05-06T10:44:06.365Z,34.55
2023-05-06T10:47:00.052Z,36.60
2023-05-06T10:49:27.400Z,31.65
2023-05-06T10:52:12.531Z,44.42
2023-05-06T10:54:57.313Z,33.35
2023-05-06T10:57:27.412Z,40.72
2023-05-06T10:59:55.763Z,25.08
2023-05-06T11:02:24.109Z,27.33
2023-05-06T11:04:59.632Z,27.02
2023-05-06T11:07:27.045Z,30.98
2023-05-06T11:10:08.387Z,28.33
2023-05-06T11:12:50.227Z,29.60
2023-05-06T11:15:29.738Z,25.58
2023-05-06T11:17:57.655Z,21.13
2023-05-06T11:20:26.476Z,22.80
2023-05-06T11:22:54.291Z,23.92
2023-05-06T11:25:41.693Z,23.30
2023-05-06T11:28:12.945Z,21.42
2023-05-06T11:30:42.541Z,20.95
2023-05-06T11:33:19.213Z,21.92
2023-05-06T11:35:46.334Z,22.27
2023-05-06T11:38:13.577Z,22.55
2023-05-06T11:40:42.957Z,22.38
2023-05-06T11:43:16.661Z,21.00
2023-05-06T11:45:48.638Z,23.55
2023-05-06T11:48:16.527Z,19.20
2023-05-06T11:50:48.022Z,22.80
2023-05-06T11:53:21.650Z,22.80
2023-05-06T11:55:50.200Z,24.73
2023-05-06T11:58:25.382Z,23.17
2023-05-06T12:01:03.574Z,24.13
2023-05-06T12:03:32.133Z,30.92
2023-05-06T12:06:00.091Z,20.92
2023-05-06T12:08:34.240Z,20.98
2023-05-06T12:11:04.995Z,30.40
2023-05-06T12:13:32.573Z,30.05
2023-05-06T12:16:01.712Z,31.52
2023-05-06T12:18:29.307Z,25.23
2023-05-06T12:20:57.313Z,18.55
2023-05-06T12:23:24.380Z,28.10
2023-05-06T12:26:09.372Z,25.30
2023-05-06T12:28:37.364Z,26.42
2023-05-06T12:31:20.994Z,28.58
2023-05-06T12:33:49.890Z,29.95
2023-05-06T12:36:18.153Z,27.42
2023-05-06T12:38:53.608Z,28.63
2023-05-06T12:41:21.855Z,32.88
2023-05-06T12:43:48.848Z,28.77
2023-05-06T12:46:17.230Z,23.25
2023-05-06T12:48:58.070Z,33.10
2023-05-06T12:51:25.164Z,26.88
2023-05-06T12:53:53.053Z,28.77
2023-05-06T12:56:21.943Z,26.58
2023-05-06T12:59:04.385Z,24.75
2023-05-06T13:01:31.933Z,33.85
2023-05-06T13:03:59.008Z,41.53
2023-05-06T13:06:26.026Z,37.58
2023-05-06T13:08:53.053Z,41.60
2023-05-06T13:11:22.187Z,40.17
2023-05-06T13:13:49.372Z,51.88
2023-05-06T13:16:16.541Z,44.42
2023-05-06T13:18:43.562Z,26.25
2023-05-06T13:21:10.469Z,26.35
2023-05-06T13:23:38.417Z,21.17
2023-05-06T13:26:06.133Z,35.85
2023-05-06T13:28:35.571Z,37.00
2023-05-06T13:31:02.629Z,29.27
2023-05-06T13:33:30.069Z,36.90
2023-05-06T13:35:57.332Z,21.38
2023-05-06T13:38:24.360Z,22.20
2023-05-06T13:40:52.674Z,22.10
2023-05-06T13:43:21.242Z,28.45
2023-05-06T13:45:48.209Z,31.83
2023-05-06T13:48:15.522Z,25.67
2023-05-06T13:50:43.598Z,21.25
2023-05-06T13:53:11.977Z,28.77
2023-05-06T13:55:39.392Z,24.45
2023-05-06T13:58:07.238Z,24.67
2023-05-06T14:00:36.065Z,31.13
2023-05-06T14:03:03.349Z,33.17
2023-05-06T14:05:30.712Z,24.45
2023-05-06T14:07:57.819Z,34.08
2023-05-06T14:10:24.799Z,33.22
2023-05-06T14:12:51.792Z,35.00
2023-05-06T14:15:18.846Z,24.60
2023-05-06T14:17:45.914Z,32.85
2023-05-06T14:20:12.873Z,28.25
2023-05-06T14:22:43.670Z,30.92
2023-05-06T14:25:11.149Z,25.25
2023-05-06T14:27:38.593Z,37.28
2023-05-06T14:30:08.870Z,23.88
2023-05-06T14:32:36.908Z,26.38
2023-05-06T14:35:04.232Z,23.80
2023-05-06T14:37:31.220Z,21.63
2023-05-06T14:39:58.189Z,17.98
2023-05-06T14:42:25.191Z,19.27
2023-05-06T14:44:52.067Z,23.00
2023-05-06T14:47:19.291Z,20.23
2023-05-06T14:49:46.210Z,18.35
2023-05-06T14:52:13.433Z,17.90
2023-05-06T14:54:43.320Z,17.67
2023-05-06T14:57:11.464Z,19.10
2023-05-06T14:59:39.028Z,17.38
2023-05-06T15:02:08.801Z,17.73
2023-05-06T15:04:36.642Z,21.60
2023-05-06T15:07:04.137Z,16.80
2023-05-06T15:09:31.252Z,17.08
2023-05-06T15:11:58.524Z,19.98
2023-05-06T15:14:25.525Z,17.90
2023-05-06T15:16:57.106Z,32.50
2023-05-06T15:19:24.738Z,20.45
2023-05-06T15:21:51.790Z,26.15
2023-05-06T15:24:18.909Z,21.27
2023-05-06T15:26:45.994Z,17.55
2023-05-06T15:29:13.355Z,20.67
2023-05-06T15:31:41.354Z,15.15
2023-05-06T15:34:10.893Z,19.38
2023-05-06T15:36:38.945Z,16.70
2023-05-06T15:39:05.999Z,14.35
2023-05-06T15:41:34.692Z,15.57
2023-05-06T15:44:03.493Z,20.58
2023-05-06T15:46:34.820Z,20.83
2023-05-06T15:49:26.185Z,20.42
2023-05-06T15:51:51.186Z,26.50
2023-05-06T15:54:18.859Z,25.55
2023-05-06T15:56:46.960Z,16.67
2023-05-06T15:59:14.381Z,16.60
2023-05-06T16:02:24.857Z,19.15
2023-05-06T16:06:57.683Z,17.45
2023-05-06T16:09:24.945Z,15.20
2023-05-06T16:11:52.425Z,17.10
2023-05-06T16:14:19.347Z,19.40
2023-05-06T16:16:46.570Z,13.43
2023-05-06T16:19:13.849Z,15.43
2023-05-06T16:21:41.305Z,16.15
2023-05-06T16:24:08.699Z,18.83
2023-05-06T16:26:35.620Z,20.42
2023-05-06T16:29:02.679Z,25.40
2023-05-06T16:31:29.892Z,17.10
2023-05-06T16:33:57.095Z,37.40
2023-05-06T16:36:24.119Z,25.65
2023-05-06T16:38:51.272Z,15.77
2023-05-06T16:41:18.193Z,24.33
2023-05-06T16:43:45.190Z,16.73
2023-05-06T16:46:12.263Z,26.42
2023-05-06T16:48:39.404Z,13.77
2023-05-06T16:51:06.985Z,15.85
2023-05-06T16:53:34.166Z,20.75
2023-05-06T16:56:03.608Z,22.48
2023-05-06T16:58:30.747Z,22.58
2023-05-06T17:00:58.006Z,17.30
2023-05-06T17:03:25.743Z,23.70
2023-05-06T17:05:54.528Z,18.15
2023-05-06T17:08:22.077Z,22.88
2023-05-06T17:10:51.405Z,26.27
2023-05-06T17:13:18.622Z,42.55
2023-05-06T17:15:46.889Z,21.63
2023-05-06T17:18:14.051Z,29.73
2023-05-06T17:20:54.420Z,20.85
2023-05-06T17:23:23.333Z,43.28
2023-05-06T17:25:51.513Z,17.10
2023-05-06T17:28:19.202Z,21.85
2023-05-06T17:30:46.602Z,35.60
2023-05-06T17:33:13.711Z,46.20
2023-05-06T17:35:40.823Z,42.40
2023-05-06T17:38:08.204Z,36.35
2023-05-06T17:40:35.959Z,24.30
2023-05-06T17:43:03.135Z,90.90
2023-05-06T17:45:30.246Z,21.98
2023-05-06T17:47:57.352Z,50.80
2023-05-06T17:50:24.503Z,17.30
2023-05-06T17:52:52.973Z,16.00
2023-05-06T17:55:21.823Z,24.65
2023-05-06T17:57:49.495Z,62.67
2023-05-06T18:00:17.195Z,55.00
2023-05-06T18:02:44.869Z,104.00
2023-05-06T18:05:13.685Z,64.25
2023-05-06T18:07:41.104Z,111.57
2023-05-06T18:10:09.237Z,116.03
2023-05-06T18:12:36.321Z,49.72
2023-05-06T18:15:03.311Z,48.70
2023-05-06T18:17:30.321Z,86.97
2023-05-06T18:19:57.338Z,66.72
2023-05-06T18:22:24.350Z,68.57
2023-05-06T18:24:55.381Z,108.50
2023-05-06T18:27:23.150Z,54.08
2023-05-06T18:29:50.436Z,110.28
2023-05-06T18:32:18.046Z,81.90
2023-05-06T18:34:45.093Z,135.43
2023-05-06T18:37:12.325Z,36.30
2023-05-06T18:39:42.903Z,38.85
2023-05-06T18:42:10.060Z,23.20
2023-05-06T18:44:37.445Z,52.00
2023-05-06T18:47:04.586Z,51.72
2023-05-06T18:49:31.578Z,100.70
2023-05-06T18:51:58.743Z,120.13
2023-05-06T18:54:25.845Z,51.53
2023-05-06T18:56:52.805Z,72.30
2023-05-06T18:59:19.940Z,31.02
2023-05-06T19:01:47.457Z,50.33
2023-05-06T19:04:14.866Z,32.63
2023-05-06T19:06:42.432Z,46.50
2023-05-06T19:09:09.601Z,73.85
2023-05-06T19:11:36.805Z,110.25
2023-05-06T19:14:03.949Z,90.65
2023-05-06T19:16:31.001Z,125.05
2023-05-06T19:18:57.972Z,143.05
2023-05-06T19:21:24.899Z,156.07
2023-05-06T19:23:53.209Z,83.10
2023-05-06T19:26:20.185Z,49.05
2023-05-06T19:28:47.071Z,154.02
2023-05-06T19:31:14.515Z,132.00
2023-05-06T19:33:43.257Z,123.07
2023-05-06T19:36:10.674Z,142.65
2023-05-06T19:38:38.455Z,158.02
2023-05-06T19:41:06.238Z,137.73
2023-05-06T19:43:33.293Z,120.15
2023-05-06T19:46:00.379Z,124.88
2023-05-06T19:48:27.497Z,217.15
2023-05-06T19:50:54.648Z,178.85
2023-05-06T19:53:24.000Z,154.57
2023-05-06T19:55:51.594Z,172.45
2023-05-06T19:58:19.615Z,200.63
2023-05-06T20:00:46.558Z,161.43
2023-05-06T20:03:13.786Z,200.20
2023-05-06T20:05:42.219Z,150.07
2023-05-06T20:08:11.350Z,108.05
2023-05-06T20:10:38.849Z,254.82
2023-05-06T20:13:06.989Z,188.18
2023-05-06T20:15:35.517Z,258.88
2023-05-06T20:18:02.900Z,190.75
2023-05-06T20:20:36.406Z,230.55
2023-05-06T20:23:03.760Z,117.57
2023-05-06T20:25:31.294Z,83.22
2023-05-06T20:28:00.032Z,158.10
2023-05-06T20:30:27.170Z,140.57
2023-05-06T20:32:55.646Z,91.20
2023-05-06T20:35:22.721Z,58.97
2023-05-06T20:37:49.630Z,128.65
2023-05-06T20:40:16.797Z,280.77
2023-05-06T20:42:43.749Z,201.13
2023-05-06T20:45:11.057Z,191.75
2023-05-06T20:47:38.252Z,271.05
2023-05-06T20:50:05.878Z,174.32
2023-05-06T20:52:34.179Z,237.45
2023-05-06T20:55:01.749Z,245.38
2023-05-06T20:57:28.721Z,178.98
2023-05-06T20:59:56.222Z,234.90
2023-05-06T21:02:23.317Z,214.77
2023-05-06T21:04:51.025Z,202.57
2023-05-06T21:07:18.101Z,95.88
2023-05-06T21:09:45.517Z,234.23
2023-05-06T21:12:12.827Z,98.53
2023-05-06T21:14:39.795Z,360.27
2023-05-06T21:17:06.861Z,163.85
2023-05-06T21:19:33.818Z,144.80
2023-05-06T21:22:01.068Z,215.50
2023-05-06T21:24:28.223Z,332.00
2023-05-06T21:26:55.202Z,261.30
2023-05-06T21:29:22.351Z,170.45
2023-05-06T21:31:49.252Z,211.45
2023-05-06T21:34:16.534Z,135.05
2023-05-06T21:36:43.464Z,134.32
2023-05-06T21:39:12.631Z,278.13
2023-05-06T21:41:40.777Z,189.48
2023-05-06T21:44:09.204Z,55.13
2023-05-06T21:46:37.803Z,303.15
2023-05-06T21:49:05.231Z,117.28
2023-05-06T21:51:34.900Z,94.10
2023-05-06T21:54:02.248Z,113.75
2023-05-06T21:56:29.637Z,169.40
2023-05-06T21:58:56.701Z,159.32
2023-05-06T22:01:27.833Z,186.65
2023-05-06T22:03:55.296Z,95.93
2023-05-06T22:06:22.865Z,183.52
2023-05-06T22:08:49.845Z,151.48
2023-05-06T22:11:17.017Z,156.27
2023-05-06T22:13:44.144Z,126.50
2023-05-06T22:16:11.122Z,269.50
2023-05-06T22:18:41.459Z,150.85
2023-05-06T22:21:09.686Z,137.38
2023-05-06T22:23:36.999Z,40.22
2023-05-06T22:26:04.289Z,78.93
2023-05-06T22:28:31.518Z,78.45
2023-05-06T22:30:58.617Z,142.80
2023-05-06T22:33:26.913Z,146.38
2023-05-06T22:35:55.440Z,38.42
2023-05-06T22:38:22.631Z,217.50
2023-05-06T22:40:49.699Z,118.32
2023-05-06T22:43:16.632Z,183.52
2023-05-06T22:45:43.817Z,73.85
2023-05-06T22:48:11.284Z,243.82
2023-05-06T22:50:38.373Z,42.33
2023-05-06T22:53:14.452Z,94.07
2023-05-06T22:55:42.219Z,99.65
2023-05-06T22:58:09.203Z,145.70
2023-05-06T23:00:36.604Z,93.13
2023-05-06T23:03:03.820Z,82.22
2023-05-06T23:05:30.786Z,65.05
2023-05-06T23:07:57.681Z,137.45
2023-05-06T23:10:24.707Z,114.13
2023-05-06T23:12:51.938Z,19.10
2023-05-06T23:15:19.015Z,164.40
2023-05-06T23:17:46.271Z,92.97
2023-05-06T23:20:13.487Z,243.07
2023-05-06T23:22:40.581Z,67.22
2023-05-06T23:25:09.362Z,43.65
2023-05-06T23:27:40.399Z,198.23
2023-05-06T23:30:08.793Z,46.95
2023-05-06T23:32:35.993Z,84.97
2023-05-06T23:35:03.183Z,23.92
2023-05-06T23:37:30.561Z,17.98
2023-05-06T23:39:58.731Z,64.05
2023-05-06T23:42:26.299Z,60.25
2023-05-06T23:44:53.622Z,94.20
2023-05-06T23:47:20.732Z,111.07
2023-05-06T23:49:47.856Z,142.52
2023-05-06T23:52:14.973Z,190.88
2023-05-06T23:54:42.135Z,59.60
2023-05-06T23:57:09.057Z,106.72
2023-05-06T23:59:36.181Z,153.25
